createdAt,value
2022-08-07T00:03:20.082Z,12.86
2022-08-07T00:09:35.366Z,12.79
2022-08-07T00:15:46.347Z,12.69
2022-08-07T00:21:57.026Z,12.54
2022-08-07T00:28:04.424Z,12.53
2022-08-07T00:34:08.870Z,12.39
2022-08-07T00:40:13.988Z,12.29
2022-08-07T00:46:16.062Z,12.35
2022-08-07T00:52:20.031Z,12.12
2022-08-07T00:58:22.383Z,12.10
2022-08-07T01:04:25.101Z,12.06
2022-08-07T01:10:27.446Z,12.00
2022-08-07T01:16:30.815Z,12.04
2022-08-07T01:22:33.067Z,11.95
2022-08-07T01:28:36.213Z,11.85
2022-08-07T01:34:38.705Z,11.81
2022-08-07T01:40:43.213Z,11.66
2022-08-07T01:46:50.291Z,11.68
2022-08-07T01:52:56.127Z,11.73
2022-08-07T01:59:15.861Z,11.48
2022-08-07T02:05:48.003Z,11.52
2022-08-07T02:12:03.868Z,11.50
2022-08-07T02:18:12.619Z,11.27
2022-08-07T02:24:17.839Z,11.30
2022-08-07T02:30:20.093Z,11.15
2022-08-07T02:36:30.527Z,11.23
2022-08-07T02:42:35.796Z,11.02
2022-08-07T02:48:39.149Z,11.03
2022-08-07T02:54:51.001Z,11.05
2022-08-07T03:00:58.046Z,11.02
2022-08-07T03:07:07.310Z,10.91
2022-08-07T03:13:15.440Z,10.78
2022-08-07T03:19:21.592Z,10.80
2022-08-07T03:25:32.316Z,10.71
2022-08-07T03:31:43.055Z,10.85
2022-08-07T03:37:58.717Z,10.68
2022-08-07T03:44:01.296Z,10.60
2022-08-07T03:50:05.244Z,10.66
2022-08-07T03:56:18.927Z,10.76
2022-08-07T04:02:36.201Z,10.78
2022-08-07T04:08:45.031Z,10.93
2022-08-07T04:14:49.936Z,11.02
2022-08-07T04:20:54.586Z,11.32
2022-08-07T04:26:59.674Z,11.25
2022-08-07T04:33:08.916Z,11.27
2022-08-07T04:39:11.437Z,11.36
2022-08-07T04:45:14.610Z,11.69
2022-08-07T04:51:28.478Z,11.54
2022-08-07T04:58:13.808Z,11.73
2022-08-07T05:04:50.843Z,11.69
2022-08-07T05:11:24.346Z,11.95
2022-08-07T05:17:50.793Z,12.18
2022-08-07T05:23:59.767Z,12.43
2022-08-07T05:30:03.646Z,12.59
2022-08-07T05:36:12.277Z,12.71
2022-08-07T05:42:33.420Z,12.95
2022-08-07T05:48:58.189Z,13.17
2022-08-07T05:55:07.255Z,13.51
2022-08-07T06:01:15.475Z,13.98
2022-08-07T06:07:22.773Z,14.13
2022-08-07T06:14:10.632Z,14.72
2022-08-07T06:20:03.189Z,14.94
2022-08-07T06:26:07.419Z,15.39
2022-08-07T06:32:09.374Z,15.82
2022-08-07T06:38:19.886Z,16.04
2022-08-07T06:44:24.685Z,16.41
2022-08-07T06:50:28.115Z,16.96
2022-08-07T06:56:49.749Z,17.18
2022-08-07T07:02:54.255Z,17.38
2022-08-07T07:09:26.610Z,17.86
2022-08-07T07:15:41.162Z,18.11
2022-08-07T07:22:11.377Z,18.68
2022-08-07T07:29:22.812Z,19.37
2022-08-07T07:34:59.177Z,20.13
2022-08-07T07:41:08.752Z,20.16
2022-08-07T07:47:14.283Z,20.74
2022-08-07T07:53:26.071Z,21.18
2022-08-07T07:59:52.828Z,21.93
2022-08-07T08:05:55.664Z,22.15
2022-08-07T08:12:03.911Z,23.03
2022-08-07T08:18:17.425Z,23.39
2022-08-07T08:24:45.391Z,24.15
2022-08-07T08:30:58.359Z,24.79
2022-08-07T08:37:04.973Z,24.95
2022-08-07T08:43:42.670Z,25.50
2022-08-07T08:50:35.120Z,25.78
2022-08-07T08:56:47.220Z,26.12
2022-08-07T09:03:09.995Z,26.07
2022-08-07T09:09:56.985Z,25.99
2022-08-07T09:16:54.422Z,26.61
2022-08-07T09:24:33.579Z,27.16
2022-08-07T09:30:06.614Z,26.03
2022-08-07T09:36:29.295Z,26.86
2022-08-07T09:43:10.619Z,26.65
2022-08-07T09:50:01.255Z,26.98
2022-08-07T09:56:03.786Z,27.78
2022-08-07T10:02:55.765Z,28.92
2022-08-07T10:09:42.768Z,27.89
2022-08-07T10:16:10.841Z,27.80
2022-08-07T10:22:43.262Z,29.45
2022-08-07T10:29:12.837Z,28.70
2022-08-07T10:36:05.639Z,28.08
2022-08-07T10:42:55.799Z,28.68
2022-08-07T10:49:24.748Z,28.44
2022-08-07T10:56:09.667Z,28.16
2022-08-07T11:03:00.828Z,30.22
2022-08-07T11:09:12.880Z,30.65
2022-08-07T11:15:40.642Z,28.65
2022-08-07T11:21:58.027Z,27.64
2022-08-07T11:28:15.505Z,27.20
2022-08-07T11:34:48.831Z,27.83
2022-08-07T11:41:18.262Z,30.21
2022-08-07T11:47:58.828Z,31.76
2022-08-07T11:54:26.001Z,32.04
2022-08-07T12:00:39.535Z,34.23
2022-08-07T12:07:10.132Z,35.51
2022-08-07T12:14:01.048Z,36.81
2022-08-07T12:20:29.628Z,37.63
2022-08-07T12:27:03.291Z,38.24
2022-08-07T12:33:30.758Z,38.19
2022-08-07T12:39:53.010Z,37.74
2022-08-07T12:46:26.513Z,34.62
2022-08-07T12:52:52.289Z,36.94
2022-08-07T12:58:58.112Z,37.37
2022-08-07T13:06:04.626Z,39.15
2022-08-07T13:12:15.383Z,39.05
2022-08-07T13:18:50.744Z,39.06
2022-08-07T13:25:06.774Z,40.30
2022-08-07T13:31:19.560Z,38.72
2022-08-07T13:37:42.038Z,38.56
2022-08-07T13:43:52.485Z,39.31
2022-08-07T13:50:35.356Z,38.76
2022-08-07T13:56:35.460Z,40.93
2022-08-07T14:02:50.943Z,41.94
2022-08-07T14:08:57.839Z,41.44
2022-08-07T14:15:09.694Z,38.96
2022-08-07T14:21:20.803Z,36.55
2022-08-07T14:28:12.537Z,37.46
2022-08-07T14:34:07.304Z,38.49
2022-08-07T14:40:26.245Z,39.27
2022-08-07T14:46:33.287Z,37.93
2022-08-07T14:52:39.452Z,39.37
2022-08-07T14:58:54.982Z,41.40
2022-08-07T15:05:01.703Z,38.29
2022-08-07T15:11:15.079Z,37.27
2022-08-07T15:17:25.016Z,35.94
2022-08-07T15:25:02.452Z,36.02
2022-08-07T15:30:16.430Z,38.60
2022-08-07T15:42:54.054Z,41.93
2022-08-07T15:49:11.613Z,42.28
2022-08-07T15:55:19.966Z,39.58
2022-08-07T16:01:39.161Z,39.88
2022-08-07T16:08:32.159Z,39.62
2022-08-07T16:14:54.726Z,39.77
2022-08-07T16:21:44.145Z,39.14
2022-08-07T16:30:06.255Z,38.16
2022-08-07T16:34:59.160Z,38.81
2022-08-07T16:41:54.096Z,38.56
2022-08-07T16:50:27.245Z,39.95
2022-08-07T16:55:50.538Z,39.51
2022-08-07T17:02:51.206Z,38.93
2022-08-07T17:09:10.728Z,37.24
2022-08-07T17:15:16.097Z,38.22
2022-08-07T17:22:01.737Z,38.78
2022-08-07T17:28:19.745Z,38.79
2022-08-07T17:35:32.812Z,38.60
2022-08-07T17:42:03.550Z,36.92
2022-08-07T17:48:16.669Z,36.18
2022-08-07T17:55:04.546Z,34.18
2022-08-07T18:01:34.784Z,31.85
2022-08-07T18:07:51.874Z,30.25
2022-08-07T18:14:31.185Z,29.10
2022-08-07T18:21:08.366Z,28.93
2022-08-07T18:27:38.706Z,29.36
2022-08-07T18:34:35.928Z,29.04
2022-08-07T18:41:20.628Z,27.32
2022-08-07T18:48:00.871Z,25.22
2022-08-07T18:54:31.092Z,24.32
2022-08-07T19:01:03.784Z,23.63
2022-08-07T19:07:51.629Z,23.02
2022-08-07T19:14:17.008Z,22.67
2022-08-07T19:21:09.748Z,22.40
2022-08-07T19:28:30.269Z,22.08
2022-08-07T19:33:42.689Z,22.02
2022-08-07T19:40:01.980Z,21.73
2022-08-07T19:46:07.968Z,21.59
2022-08-07T19:52:18.749Z,21.25
2022-08-07T19:58:28.396Z,21.35
2022-08-07T20:04:48.820Z,21.18
2022-08-07T20:11:09.627Z,21.11
2022-08-07T20:17:13.630Z,20.97
2022-08-07T20:23:40.584Z,20.87
2022-08-07T20:30:00.337Z,20.93
2022-08-07T20:36:06.562Z,20.59
2022-08-07T20:42:12.740Z,20.42
2022-08-07T20:48:28.550Z,20.35
2022-08-07T20:54:31.940Z,20.11
2022-08-07T21:00:44.263Z,20.01
2022-08-07T21:06:53.468Z,19.74
2022-08-07T21:13:00.650Z,19.41
2022-08-07T21:19:03.657Z,19.22
2022-08-07T21:25:17.895Z,18.95
2022-08-07T21:32:42.625Z,18.76
2022-08-07T21:38:09.401Z,18.61
2022-08-07T21:44:32.369Z,18.41
2022-08-07T21:50:52.374Z,18.24
2022-08-07T21:57:31.130Z,18.05
2022-08-07T22:03:51.670Z,17.83
2022-08-07T22:10:01.106Z,17.67
2022-08-07T22:16:43.356Z,17.61
2022-08-07T22:22:50.813Z,17.53
2022-08-07T22:29:14.033Z,17.14
2022-08-07T22:35:17.175Z,17.12
2022-08-07T22:42:10.503Z,16.82
2022-08-07T22:48:55.658Z,16.38
2022-08-07T22:55:38.952Z,16.25
2022-08-07T23:02:24.069Z,16.02
2022-08-07T23:08:58.513Z,16.03
2022-08-07T23:16:05.434Z,15.65
2022-08-07T23:22:20.524Z,15.54
2022-08-07T23:29:43.425Z,15.34
2022-08-07T23:36:29.023Z,15.06
2022-08-07T23:43:16.782Z,15.04
2022-08-07T23:49:52.772Z,14.93
2022-08-07T23:56:21.092Z,14.83
